createdAt,value
2023-05-25T00:01:00.575Z,12.80
2023-05-25T00:03:32.324Z,12.80
2023-05-25T00:06:01.918Z,12.80
2023-05-25T00:08:29.976Z,12.80
2023-05-25T00:10:58.057Z,12.70
2023-05-25T00:13:26.123Z,12.70
2023-05-25T00:15:53.993Z,12.70
2023-05-25T00:18:21.896Z,12.70
2023-05-25T00:20:54.092Z,12.60
2023-05-25T00:23:22.158Z,12.60
2023-05-25T00:25:50.064Z,12.60
2023-05-25T00:28:18.113Z,12.60
2023-05-25T00:30:46.045Z,12.50
2023-05-25T00:33:13.868Z,12.50
2023-05-25T00:35:42.738Z,12.50
2023-05-25T00:38:15.123Z,12.40
2023-05-25T00:40:43.026Z,12.40
2023-05-25T00:43:12.556Z,12.40
2023-05-25T00:45:40.734Z,12.40
2023-05-25T00:48:09.632Z,12.30
2023-05-25T00:50:40.527Z,12.30
2023-05-25T00:53:09.674Z,12.30
2023-05-25T00:55:45.328Z,12.30
2023-05-25T00:58:15.644Z,12.30
2023-05-25T01:00:46.676Z,12.30
2023-05-25T01:03:21.866Z,12.20
2023-05-25T01:05:52.376Z,12.20
2023-05-25T01:08:21.821Z,12.20
2023-05-25T01:10:53.631Z,12.20
2023-05-25T01:13:22.403Z,12.20
2023-05-25T01:15:52.220Z,12.10
2023-05-25T01:18:20.083Z,12.00
2023-05-25T01:21:02.793Z,12.00
2023-05-25T01:23:35.886Z,12.00
2023-05-25T01:26:06.652Z,12.00
2023-05-25T01:28:40.719Z,12.00
2023-05-25T01:31:09.583Z,12.00
2023-05-25T01:33:37.809Z,12.00
2023-05-25T01:36:07.642Z,11.90
2023-05-25T01:38:36.398Z,11.90
2023-05-25T01:41:04.275Z,11.90
2023-05-25T01:43:32.236Z,11.90
2023-05-25T01:46:09.384Z,11.80
2023-05-25T01:48:46.436Z,11.80
2023-05-25T01:51:22.315Z,11.80
2023-05-25T01:53:55.641Z,11.80
2023-05-25T01:56:25.319Z,11.80
2023-05-25T01:58:54.235Z,11.70
2023-05-25T02:01:23.662Z,11.70
2023-05-25T02:03:52.577Z,11.70
2023-05-25T02:06:21.952Z,11.70
2023-05-25T02:08:49.784Z,11.70
2023-05-25T02:11:17.935Z,11.60
2023-05-25T02:13:45.807Z,11.60
2023-05-25T02:16:13.696Z,11.60
2023-05-25T02:18:44.603Z,11.60
2023-05-25T02:21:12.803Z,11.60
2023-05-25T02:23:42.056Z,11.60
2023-05-25T02:26:09.898Z,11.60
2023-05-25T02:28:37.771Z,11.60
2023-05-25T02:31:05.901Z,11.60
2023-05-25T02:33:33.753Z,11.60
2023-05-25T02:36:01.867Z,11.50
2023-05-25T02:38:29.772Z,11.50
2023-05-25T02:40:59.156Z,11.50
2023-05-25T02:43:27.014Z,11.50
2023-05-25T02:45:54.956Z,11.50
2023-05-25T02:48:22.867Z,11.40
2023-05-25T02:50:50.859Z,11.40
2023-05-25T02:53:18.714Z,11.40
2023-05-25T02:55:46.709Z,11.40
2023-05-25T02:58:16.613Z,11.40
2023-05-25T03:00:44.794Z,11.40
2023-05-25T03:03:12.729Z,11.30
2023-05-25T03:05:40.628Z,11.30
2023-05-25T03:08:08.514Z,11.30
2023-05-25T03:10:36.381Z,11.30
2023-05-25T03:13:04.276Z,11.30
2023-05-25T03:15:33.460Z,11.30
2023-05-25T03:18:02.024Z,11.20
2023-05-25T03:20:30.411Z,11.20
2023-05-25T03:22:58.324Z,11.20
2023-05-25T03:25:26.212Z,11.10
2023-05-25T03:27:54.412Z,11.10
2023-05-25T03:30:23.111Z,11.10
2023-05-25T03:32:52.441Z,11.10
2023-05-25T03:35:20.491Z,11.10
2023-05-25T03:37:48.346Z,11.10
2023-05-25T03:40:16.329Z,11.00
2023-05-25T03:42:44.160Z,11.00
2023-05-25T03:45:12.563Z,11.00
2023-05-25T03:47:40.427Z,11.00
2023-05-25T03:50:10.848Z,10.90
2023-05-25T03:52:38.682Z,10.90
2023-05-25T03:55:07.389Z,10.90
2023-05-25T03:57:35.310Z,10.90
2023-05-25T04:00:05.222Z,10.90
2023-05-25T04:02:34.676Z,10.90
2023-05-25T04:05:02.698Z,10.90
2023-05-25T04:07:31.912Z,10.80
2023-05-25T04:10:00.000Z,10.80
2023-05-25T04:12:28.432Z,10.80
2023-05-25T04:14:56.384Z,10.80
2023-05-25T04:17:25.142Z,10.70
2023-05-25T04:19:53.321Z,10.70
2023-05-25T04:22:21.236Z,10.80
2023-05-25T04:24:50.452Z,10.70
2023-05-25T04:27:20.441Z,10.70
2023-05-25T04:29:50.197Z,10.70
2023-05-25T04:32:18.788Z,10.70
2023-05-25T04:34:48.168Z,10.70
2023-05-25T04:37:17.203Z,10.60
2023-05-25T04:39:45.082Z,10.70
2023-05-25T04:42:14.520Z,10.70
2023-05-25T04:44:42.477Z,10.60
2023-05-25T04:47:10.774Z,10.60
2023-05-25T04:49:38.690Z,10.60
2023-05-25T04:52:07.374Z,10.70
2023-05-25T04:54:35.763Z,10.60
2023-05-25T04:57:04.111Z,10.70
2023-05-25T04:59:33.370Z,10.70
2023-05-25T05:02:01.388Z,10.60
2023-05-25T05:04:29.267Z,10.60
2023-05-25T05:06:58.984Z,10.60
2023-05-25T05:09:27.057Z,10.70
2023-05-25T05:11:54.923Z,10.70
2023-05-25T05:14:22.819Z,10.70
2023-05-25T05:16:52.166Z,10.70
2023-05-25T05:19:20.146Z,10.70
2023-05-25T05:21:48.037Z,10.70
2023-05-25T05:24:16.046Z,10.70
2023-05-25T05:26:55.589Z,10.70
2023-05-25T05:29:24.951Z,10.70
2023-05-25T05:31:54.288Z,10.70
2023-05-25T05:34:22.282Z,10.70
2023-05-25T05:36:57.977Z,10.70
2023-05-25T05:39:26.688Z,10.80
2023-05-25T05:41:54.637Z,10.80
2023-05-25T05:44:25.992Z,10.80
2023-05-25T05:47:00.730Z,10.80
2023-05-25T05:49:29.207Z,10.90
2023-05-25T05:51:57.142Z,10.90
2023-05-25T05:54:25.096Z,10.90
2023-05-25T05:56:53.070Z,10.90
2023-05-25T05:59:22.848Z,11.00
2023-05-25T06:01:50.857Z,11.00
2023-05-25T06:04:20.271Z,11.10
2023-05-25T06:06:48.163Z,11.10
2023-05-25T06:09:16.135Z,11.10
2023-05-25T06:11:44.011Z,11.10
2023-05-25T06:14:11.966Z,11.20
2023-05-25T06:16:40.058Z,11.30
2023-05-25T06:19:07.994Z,11.30
2023-05-25T06:21:37.973Z,11.30
2023-05-25T06:24:06.737Z,11.40
2023-05-25T06:26:34.674Z,11.50
2023-05-25T06:29:02.829Z,11.60
2023-05-25T06:31:30.787Z,11.60
2023-05-25T06:33:58.705Z,11.70
2023-05-25T06:36:27.483Z,11.70
2023-05-25T06:38:56.976Z,11.80
2023-05-25T06:41:24.848Z,11.80
2023-05-25T06:43:52.698Z,11.90
2023-05-25T06:46:21.610Z,12.00
2023-05-25T06:48:49.691Z,12.00
2023-05-25T06:51:17.673Z,12.10
2023-05-25T06:53:45.763Z,12.20
2023-05-25T06:56:14.957Z,12.30
2023-05-25T06:58:42.880Z,12.40
2023-05-25T07:01:10.873Z,12.40
2023-05-25T07:03:39.440Z,12.50
2023-05-25T07:06:07.915Z,12.60
2023-05-25T07:08:36.275Z,12.70
2023-05-25T07:11:04.209Z,12.80
2023-05-25T07:13:33.501Z,12.80
2023-05-25T07:16:01.593Z,12.90
2023-05-25T07:18:29.590Z,13.00
2023-05-25T07:20:58.169Z,13.10
2023-05-25T07:23:26.080Z,13.10
2023-05-25T07:25:53.976Z,13.20
2023-05-25T07:28:21.869Z,13.30
2023-05-25T07:30:51.153Z,13.40
2023-05-25T07:33:19.074Z,13.40
2023-05-25T07:35:47.068Z,13.50
2023-05-25T07:38:15.104Z,13.60
2023-05-25T07:40:44.467Z,13.70
2023-05-25T07:43:12.311Z,13.80
2023-05-25T07:45:41.365Z,13.80
2023-05-25T07:48:10.654Z,13.90
2023-05-25T07:50:38.586Z,14.00
2023-05-25T07:53:06.437Z,14.10
2023-05-25T07:55:34.384Z,14.20
2023-05-25T07:58:02.336Z,14.20
2023-05-25T08:00:30.252Z,14.30
2023-05-25T08:02:58.158Z,14.30
2023-05-25T08:05:27.502Z,14.40
2023-05-25T08:07:55.551Z,14.50
2023-05-25T08:10:23.876Z,14.60
2023-05-25T08:12:52.708Z,14.60
2023-05-25T08:15:20.829Z,14.80
2023-05-25T08:17:50.658Z,14.90
2023-05-25T08:20:19.249Z,14.90
2023-05-25T08:22:48.531Z,14.90
2023-05-25T08:25:16.465Z,15.00
2023-05-25T08:27:44.422Z,15.10
2023-05-25T08:30:13.060Z,15.20
2023-05-25T08:32:41.147Z,15.20
2023-05-25T08:35:10.044Z,15.30
2023-05-25T08:37:38.228Z,15.40
2023-05-25T08:40:09.837Z,15.50
2023-05-25T08:42:37.760Z,15.60
2023-05-25T08:45:12.495Z,15.60
2023-05-25T08:47:45.654Z,15.70
2023-05-25T08:50:15.275Z,15.80
2023-05-25T08:52:46.620Z,15.90
2023-05-25T08:55:18.462Z,16.00
2023-05-25T08:57:51.975Z,16.00
2023-05-25T09:00:26.420Z,16.10
2023-05-25T09:03:01.009Z,16.20
2023-05-25T09:05:29.258Z,16.30
2023-05-25T09:07:58.232Z,16.40
2023-05-25T09:10:29.129Z,16.40
2023-05-25T09:12:57.705Z,16.50
2023-05-25T09:15:25.700Z,16.50
2023-05-25T09:17:53.708Z,16.60
2023-05-25T09:20:21.838Z,16.60
2023-05-25T09:22:49.708Z,16.70
2023-05-25T09:25:20.204Z,16.70
2023-05-25T09:27:50.888Z,16.80
2023-05-25T09:30:18.802Z,16.90
2023-05-25T09:32:46.795Z,17.00
2023-05-25T09:35:15.890Z,17.00
2023-05-25T09:37:45.170Z,17.10
2023-05-25T09:40:14.792Z,17.20
2023-05-25T09:42:43.576Z,17.30
2023-05-25T09:45:12.998Z,17.30
2023-05-25T09:47:41.924Z,17.40
2023-05-25T09:50:12.116Z,17.50
2023-05-25T09:52:39.949Z,17.50
2023-05-25T09:55:10.704Z,17.60
2023-05-25T09:57:38.598Z,17.70
2023-05-25T10:00:11.251Z,17.70
2023-05-25T10:02:40.894Z,17.70
2023-05-25T10:05:09.546Z,17.80
2023-05-25T10:07:40.311Z,18.00
2023-05-25T10:10:09.319Z,18.00
2023-05-25T10:12:38.580Z,18.10
2023-05-25T10:15:09.194Z,18.10
2023-05-25T10:17:39.989Z,18.10
2023-05-25T10:20:10.942Z,18.20
2023-05-25T10:22:41.516Z,18.20
2023-05-25T10:25:15.974Z,18.40
2023-05-25T10:27:49.216Z,18.30
2023-05-25T10:30:17.229Z,18.40
2023-05-25T10:32:47.948Z,18.60
2023-05-25T10:35:18.605Z,18.50
2023-05-25T10:37:47.870Z,18.40
2023-05-25T10:40:16.371Z,18.60
2023-05-25T10:42:46.171Z,18.60
2023-05-25T10:45:14.678Z,18.60
2023-05-25T10:47:43.201Z,18.50
2023-05-25T10:50:22.470Z,18.50
2023-05-25T10:53:00.127Z,18.40
2023-05-25T10:55:31.841Z,18.70
2023-05-25T10:58:09.933Z,18.70
2023-05-25T11:00:38.331Z,18.80
2023-05-25T11:03:06.479Z,19.00
2023-05-25T11:05:40.487Z,19.10
2023-05-25T11:08:09.989Z,18.90
2023-05-25T11:10:54.175Z,18.90
2023-05-25T11:13:38.042Z,18.90
2023-05-25T11:16:36.156Z,19.10
2023-05-25T11:19:04.424Z,19.10
2023-05-25T11:21:55.590Z,19.10
2023-05-25T11:24:23.325Z,19.00
2023-05-25T11:26:58.761Z,19.00
2023-05-25T11:29:27.239Z,19.30
2023-05-25T11:31:56.758Z,19.40
2023-05-25T11:34:25.798Z,19.50
2023-05-25T11:37:01.619Z,19.60
2023-05-25T11:39:30.253Z,19.60
2023-05-25T11:42:03.898Z,19.80
2023-05-25T11:44:33.526Z,19.70
2023-05-25T11:47:05.922Z,19.70
2023-05-25T11:49:33.953Z,19.80
2023-05-25T11:52:07.451Z,20.00
2023-05-25T11:54:36.429Z,20.10
2023-05-25T11:57:04.744Z,20.00
2023-05-25T11:59:33.429Z,20.20
2023-05-25T12:02:02.935Z,20.30
2023-05-25T12:04:32.881Z,20.40
2023-05-25T12:07:06.761Z,20.30
2023-05-25T12:09:35.547Z,20.50
2023-05-25T12:12:05.517Z,20.60
2023-05-25T12:14:36.076Z,20.50
2023-05-25T12:17:04.330Z,20.50
2023-05-25T12:19:32.801Z,20.50
2023-05-25T12:22:00.945Z,20.60
2023-05-25T12:24:30.311Z,20.70
2023-05-25T12:26:59.146Z,21.00
2023-05-25T12:29:27.122Z,21.10
2023-05-25T12:32:02.429Z,21.20
2023-05-25T12:34:30.458Z,21.30
2023-05-25T12:36:58.741Z,21.30
2023-05-25T12:39:39.146Z,21.30
2023-05-25T12:42:13.486Z,21.30
2023-05-25T12:44:41.523Z,21.40
2023-05-25T12:47:13.354Z,21.60
2023-05-25T12:49:42.541Z,21.60
2023-05-25T12:52:11.719Z,21.60
2023-05-25T12:54:44.071Z,21.80
2023-05-25T12:57:14.263Z,21.90
2023-05-25T12:59:43.727Z,22.00
2023-05-25T13:02:12.336Z,22.20
2023-05-25T13:04:41.482Z,22.20
2023-05-25T13:07:10.363Z,22.30
2023-05-25T13:09:38.885Z,22.20
2023-05-25T13:12:09.352Z,22.40
2023-05-25T13:14:37.277Z,22.40
2023-05-25T13:17:05.835Z,22.20
2023-05-25T13:19:33.754Z,22.20
2023-05-25T13:22:01.825Z,22.30
2023-05-25T13:24:30.787Z,22.40
2023-05-25T13:26:58.644Z,22.60
2023-05-25T13:29:27.883Z,22.80
2023-05-25T13:31:55.909Z,23.00
2023-05-25T13:34:23.944Z,23.10
2023-05-25T13:36:51.847Z,23.20
2023-05-25T13:39:19.773Z,23.40
2023-05-25T13:41:48.136Z,23.50
2023-05-25T13:44:17.767Z,23.60
2023-05-25T13:46:47.281Z,23.70
2023-05-25T13:49:16.371Z,23.70
2023-05-25T13:51:44.371Z,23.80
2023-05-25T13:54:13.609Z,24.00
2023-05-25T13:56:42.457Z,24.00
2023-05-25T13:59:10.624Z,24.10
2023-05-25T14:01:38.545Z,24.10
2023-05-25T14:04:08.198Z,24.20
2023-05-25T14:06:36.276Z,24.30
2023-05-25T14:09:04.229Z,24.40
2023-05-25T14:11:32.144Z,24.50
2023-05-25T14:14:00.158Z,24.60
2023-05-25T14:16:28.249Z,24.60
2023-05-25T14:18:56.620Z,24.70
2023-05-25T14:21:25.927Z,24.70
2023-05-25T14:23:53.911Z,24.70
2023-05-25T14:26:22.001Z,24.80
2023-05-25T14:28:50.126Z,24.90
2023-05-25T14:31:18.118Z,24.90
2023-05-25T14:33:46.119Z,24.80
2023-05-25T14:36:14.010Z,24.80
2023-05-25T14:38:43.233Z,24.90
2023-05-25T14:41:11.144Z,24.90
2023-05-25T14:43:39.020Z,25.00
2023-05-25T14:46:07.352Z,25.00
2023-05-25T14:48:36.190Z,25.10
2023-05-25T14:51:04.268Z,25.20
2023-05-25T14:53:32.269Z,25.20
2023-05-25T14:56:02.651Z,25.00
2023-05-25T14:58:32.277Z,25.10
2023-05-25T15:01:00.215Z,25.20
2023-05-25T15:03:28.316Z,25.20
2023-05-25T15:05:56.309Z,25.30
2023-05-25T15:08:24.213Z,25.30
2023-05-25T15:10:52.152Z,25.40
2023-05-25T15:13:22.689Z,25.50
2023-05-25T15:15:54.514Z,25.40
2023-05-25T15:18:22.592Z,25.50
2023-05-25T15:20:50.552Z,25.50
2023-05-25T15:23:18.490Z,25.60
2023-05-25T15:25:46.345Z,25.60
2023-05-25T15:28:14.223Z,25.70
2023-05-25T15:30:43.534Z,25.70
2023-05-25T15:33:11.495Z,25.70
2023-05-25T15:35:39.351Z,25.80
2023-05-25T15:38:07.241Z,25.80
2023-05-25T15:40:37.034Z,25.70
2023-05-25T15:43:05.018Z,25.60
2023-05-25T15:45:32.976Z,25.70
2023-05-25T15:48:03.948Z,25.70
2023-05-25T15:50:31.883Z,25.80
2023-05-25T15:52:59.799Z,25.80
2023-05-25T15:55:27.841Z,25.80
2023-05-25T15:57:55.745Z,25.90
2023-05-25T16:00:24.055Z,25.90
2023-05-25T16:02:52.184Z,26.00
2023-05-25T16:05:21.622Z,26.00
2023-05-25T16:07:49.575Z,26.00
2023-05-25T16:10:17.584Z,26.00
2023-05-25T16:12:45.430Z,26.10
2023-05-25T16:15:13.341Z,26.10
2023-05-25T16:17:41.297Z,26.10
2023-05-25T16:20:10.444Z,26.10
2023-05-25T16:22:39.744Z,26.10
2023-05-25T16:25:08.667Z,26.10
2023-05-25T16:27:36.588Z,26.00
2023-05-25T16:30:05.144Z,26.00
2023-05-25T16:32:33.109Z,26.00
2023-05-25T16:35:01.514Z,26.00
2023-05-25T16:37:29.440Z,26.10
2023-05-25T16:39:58.626Z,26.00
2023-05-25T16:42:26.581Z,26.00
2023-05-25T16:44:54.492Z,26.00
2023-05-25T16:47:22.652Z,25.80
2023-05-25T16:49:50.592Z,25.80
2023-05-25T16:52:18.529Z,25.80
2023-05-25T16:54:46.432Z,25.80
2023-05-25T16:57:15.725Z,25.70
2023-05-25T16:59:43.602Z,25.50
2023-05-25T17:02:11.486Z,25.50
2023-05-25T17:04:39.360Z,25.50
2023-05-25T17:07:07.504Z,25.50
2023-05-25T17:09:35.361Z,25.60
2023-05-25T17:12:03.553Z,25.60
2023-05-25T17:14:32.966Z,25.60
2023-05-25T17:17:00.869Z,25.60
2023-05-25T17:19:28.753Z,25.50
2023-05-25T17:21:56.674Z,25.50
2023-05-25T17:24:24.606Z,25.50
2023-05-25T17:26:52.522Z,25.50
2023-05-25T17:29:20.635Z,25.50
2023-05-25T17:31:50.098Z,25.40
2023-05-25T17:34:18.126Z,25.40
2023-05-25T17:36:46.063Z,25.40
2023-05-25T17:39:13.955Z,25.30
2023-05-25T17:41:42.475Z,25.20
2023-05-25T17:44:10.775Z,25.20
2023-05-25T17:46:38.673Z,25.20
2023-05-25T17:49:07.912Z,25.20
2023-05-25T17:51:37.494Z,25.20
2023-05-25T17:54:05.728Z,25.20
2023-05-25T17:56:33.599Z,25.00
2023-05-25T17:59:01.488Z,25.10
2023-05-25T18:01:29.499Z,25.00
2023-05-25T18:03:57.692Z,25.00
2023-05-25T18:06:29.124Z,24.90
2023-05-25T18:08:57.333Z,24.90
2023-05-25T18:11:26.125Z,24.80
2023-05-25T18:13:54.066Z,24.80
2023-05-25T18:16:22.179Z,24.70
2023-05-25T18:18:50.062Z,24.70
2023-05-25T18:21:17.977Z,24.60
2023-05-25T18:23:47.434Z,24.50
2023-05-25T18:26:15.373Z,24.40
2023-05-25T18:28:43.387Z,24.20
2023-05-25T18:31:11.358Z,24.00
2023-05-25T18:33:40.823Z,23.90
2023-05-25T18:36:09.196Z,23.80
2023-05-25T18:38:37.093Z,23.80
2023-05-25T18:41:06.579Z,23.70
2023-05-25T18:43:34.482Z,23.60
2023-05-25T18:46:02.368Z,23.50
2023-05-25T18:48:30.430Z,23.50
2023-05-25T18:50:58.303Z,23.50
2023-05-25T18:53:26.254Z,23.40
2023-05-25T18:55:54.225Z,23.30
2023-05-25T18:58:23.538Z,23.30
2023-05-25T19:00:51.457Z,23.20
2023-05-25T19:03:19.447Z,23.20
2023-05-25T19:05:47.381Z,23.10
2023-05-25T19:08:15.532Z,23.00
2023-05-25T19:10:43.525Z,22.90
2023-05-25T19:13:11.480Z,22.80
2023-05-25T19:15:40.733Z,22.70
2023-05-25T19:18:08.766Z,22.60
2023-05-25T19:20:36.780Z,22.60
2023-05-25T19:23:04.795Z,22.50
2023-05-25T19:25:32.708Z,22.50
2023-05-25T19:28:00.598Z,22.40
2023-05-25T19:30:28.590Z,22.30
2023-05-25T19:32:57.989Z,22.20
2023-05-25T19:35:25.935Z,22.20
2023-05-25T19:37:54.018Z,22.10
2023-05-25T19:40:22.035Z,22.00
2023-05-25T19:42:49.934Z,22.00
2023-05-25T19:45:19.254Z,22.00
2023-05-25T19:47:47.531Z,21.90
2023-05-25T19:50:16.916Z,21.90
2023-05-25T19:52:44.976Z,21.80
2023-05-25T19:55:12.910Z,21.70
2023-05-25T19:57:40.823Z,21.70
2023-05-25T20:00:17.516Z,21.60
2023-05-25T20:02:54.006Z,21.50
2023-05-25T20:05:23.485Z,21.50
2023-05-25T20:07:52.557Z,21.50
2023-05-25T20:10:20.782Z,21.40
2023-05-25T20:12:48.847Z,21.40
2023-05-25T20:15:16.910Z,21.30
2023-05-25T20:17:44.864Z,21.20
2023-05-25T20:20:13.136Z,21.20
2023-05-25T20:22:42.729Z,21.10
2023-05-25T20:25:10.730Z,21.10
2023-05-25T20:27:38.552Z,21.00
2023-05-25T20:30:07.692Z,20.90
2023-05-25T20:32:35.636Z,20.90
2023-05-25T20:35:03.688Z,20.80
2023-05-25T20:37:31.571Z,20.80
2023-05-25T20:40:00.858Z,20.70
2023-05-25T20:42:28.700Z,20.70
2023-05-25T20:44:56.606Z,20.60
2023-05-25T20:47:24.843Z,20.60
2023-05-25T20:49:52.895Z,20.50
2023-05-25T20:52:21.131Z,20.50
2023-05-25T20:54:49.138Z,20.40
2023-05-25T20:57:18.412Z,20.40
2023-05-25T20:59:46.357Z,20.40
2023-05-25T21:02:14.226Z,20.40
2023-05-25T21:04:42.207Z,20.30
2023-05-25T21:07:10.236Z,20.20
2023-05-25T21:09:38.186Z,20.20
2023-05-25T21:12:07.571Z,20.10
2023-05-25T21:14:36.822Z,20.10
2023-05-25T21:17:04.909Z,20.00
2023-05-25T21:19:32.812Z,20.00
2023-05-25T21:22:00.981Z,20.00
2023-05-25T21:24:28.898Z,19.90
2023-05-25T21:26:56.783Z,19.90
2023-05-25T21:29:24.744Z,19.80
2023-05-25T21:31:54.033Z,19.70
2023-05-25T21:34:21.966Z,19.70
2023-05-25T21:36:50.046Z,19.60
2023-05-25T21:39:17.960Z,19.60
2023-05-25T21:41:46.485Z,19.50
2023-05-25T21:44:14.382Z,19.50
2023-05-25T21:46:42.349Z,19.40
2023-05-25T21:49:11.659Z,19.40
2023-05-25T21:51:39.563Z,19.30
2023-05-25T21:54:07.462Z,19.30
2023-05-25T21:56:35.513Z,19.20
2023-05-25T21:59:03.436Z,19.20
2023-05-25T22:01:31.363Z,19.10
2023-05-25T22:03:59.292Z,19.00
2023-05-25T22:06:28.487Z,19.00
2023-05-25T22:08:56.362Z,19.00
2023-05-25T22:11:25.248Z,18.90
2023-05-25T22:13:53.502Z,18.80
2023-05-25T22:16:21.724Z,18.80
2023-05-25T22:18:49.760Z,18.70
2023-05-25T22:21:17.695Z,18.70
2023-05-25T22:23:46.862Z,18.70
2023-05-25T22:26:14.718Z,18.70
2023-05-25T22:28:42.566Z,18.60
2023-05-25T22:31:11.326Z,18.60
2023-05-25T22:33:39.380Z,18.50
2023-05-25T22:36:07.493Z,18.50
2023-05-25T22:38:35.383Z,18.40
2023-05-25T22:41:04.657Z,18.40
2023-05-25T22:43:32.518Z,18.30
2023-05-25T22:46:00.436Z,18.30
2023-05-25T22:48:28.382Z,18.30
2023-05-25T22:50:56.293Z,18.30
2023-05-25T22:53:24.176Z,18.20
2023-05-25T22:55:52.309Z,18.20
2023-05-25T22:58:21.701Z,18.10
2023-05-25T23:00:49.623Z,18.10
2023-05-25T23:03:17.629Z,18.10
2023-05-25T23:05:46.091Z,18.00
2023-05-25T23:08:14.418Z,18.00
2023-05-25T23:10:42.407Z,17.90
2023-05-25T23:13:10.667Z,17.90
2023-05-25T23:15:40.469Z,17.80
2023-05-25T23:18:08.412Z,17.80
2023-05-25T23:20:36.388Z,17.80
2023-05-25T23:23:04.372Z,17.70
2023-05-25T23:25:32.254Z,17.70
2023-05-25T23:28:00.174Z,17.60
2023-05-25T23:30:28.086Z,17.60
2023-05-25T23:32:57.353Z,17.50
2023-05-25T23:35:25.252Z,17.50
2023-05-25T23:37:53.119Z,17.50
2023-05-25T23:40:20.983Z,17.40
2023-05-25T23:42:48.882Z,17.40
2023-05-25T23:45:16.856Z,17.40
2023-05-25T23:47:44.780Z,17.30
2023-05-25T23:50:14.002Z,17.30
2023-05-25T23:52:42.446Z,17.30
2023-05-25T23:55:10.570Z,17.20
2023-05-25T23:57:38.438Z,17.10
